sensor_id;sensor_type;location;lat;lon;timestamp;P1;durP1;ratioP1;P2;durP2;ratioP2
52386;SDS011;38317;53.084;6.960;2023-01-09T00:01:37;5.13;;;1.38;;
52386;SDS011;38317;53.084;6.960;2023-01-09T00:04:04;3.08;;;1.33;;
52386;SDS011;38317;53.084;6.960;2023-01-09T00:06:31;5.35;;;1.08;;
52386;SDS011;38317;53.084;6.960;2023-01-09T00:08:57;3.35;;;1.13;;
52386;SDS011;38317;53.084;6.960;2023-01-09T00:11:22;3.15;;;1.15;;
52386;SDS011;38317;53.084;6.960;2023-01-09T00:13:48;2.88;;;1.20;;
52386;SDS011;38317;53.084;6.960;2023-01-09T00:16:14;2.42;;;1.13;;
52386;SDS011;38317;53.084;6.960;2023-01-09T00:18:40;4.32;;;1.27;;
52386;SDS011;38317;53.084;6.960;2023-01-09T00:21:06;3.60;;;1.05;;
52386;SDS011;38317;53.084;6.960;2023-01-09T00:23:34;5.10;;;1.17;;
52386;SDS011;38317;53.084;6.960;2023-01-09T00:26:02;2.50;;;1.00;;
52386;SDS011;38317;53.084;6.960;2023-01-09T00:28:33;3.05;;;1.15;;
52386;SDS011;38317;53.084;6.960;2023-01-09T00:31:00;3.50;;;1.35;;
52386;SDS011;38317;53.084;6.960;2023-01-09T00:33:28;3.30;;;1.27;;
52386;SDS011;38317;53.084;6.960;2023-01-09T00:35:56;2.22;;;0.90;;
52386;SDS011;38317;53.084;6.960;2023-01-09T00:38:22;3.85;;;1.13;;
52386;SDS011;38317;53.084;6.960;2023-01-09T00:40:48;2.72;;;0.90;;
52386;SDS011;38317;53.084;6.960;2023-01-09T00:43:14;2.53;;;1.00;;
52386;SDS011;38317;53.084;6.960;2023-01-09T00:45:40;2.00;;;0.90;;
52386;SDS011;38317;53.084;6.960;2023-01-09T00:48:07;2.50;;;1.10;;
52386;SDS011;38317;53.084;6.960;2023-01-09T00:50:36;2.55;;;0.85;;
52386;SDS011;38317;53.084;6.960;2023-01-09T00:53:07;4.22;;;1.20;;
52386;SDS011;38317;53.084;6.960;2023-01-09T00:55:36;4.13;;;1.45;;
52386;SDS011;38317;53.084;6.960;2023-01-09T00:58:03;3.28;;;1.20;;
52386;SDS011;38317;53.084;6.960;2023-01-09T01:00:29;3.10;;;1.10;;
52386;SDS011;38317;53.084;6.960;2023-01-09T01:02:55;5.95;;;1.20;;
52386;SDS011;38317;53.084;6.960;2023-01-09T01:05:20;3.00;;;1.27;;
52386;SDS011;38317;53.084;6.960;2023-01-09T01:08:11;3.35;;;1.35;;
52386;SDS011;38317;53.084;6.960;2023-01-09T01:10:38;3.45;;;1.70;;
52386;SDS011;38317;53.084;6.960;2023-01-09T01:13:04;4.53;;;1.42;;
52386;SDS011;38317;53.084;6.960;2023-01-09T01:15:29;4.85;;;1.52;;
52386;SDS011;38317;53.084;6.960;2023-01-09T01:17:55;3.25;;;1.33;;
52386;SDS011;38317;53.084;6.960;2023-01-09T01:20:21;1.90;;;1.02;;
52386;SDS011;38317;53.084;6.960;2023-01-09T01:22:47;2.67;;;1.30;;
52386;SDS011;38317;53.084;6.960;2023-01-09T01:25:14;2.85;;;0.80;;
52386;SDS011;38317;53.084;6.960;2023-01-09T01:27:41;1.95;;;0.70;;
52386;SDS011;38317;53.084;6.960;2023-01-09T01:30:08;1.88;;;0.57;;
52386;SDS011;38317;53.084;6.960;2023-01-09T01:32:35;0.88;;;0.50;;
52386;SDS011;38317;53.084;6.960;2023-01-09T01:35:01;1.13;;;0.40;;
52386;SDS011;38317;53.084;6.960;2023-01-09T01:37:27;0.77;;;0.40;;
52386;SDS011;38317;53.084;6.960;2023-01-09T01:39:53;1.85;;;0.30;;
52386;SDS011;38317;53.084;6.960;2023-01-09T01:42:19;2.47;;;0.43;;
52386;SDS011;38317;53.084;6.960;2023-01-09T01:45:02;2.20;;;0.43;;
52386;SDS011;38317;53.084;6.960;2023-01-09T01:50:16;0.45;;;0.22;;
52386;SDS011;38317;53.084;6.960;2023-01-09T01:52:52;1.10;;;0.40;;
52386;SDS011;38317;53.084;6.960;2023-01-09T01:55:23;0.95;;;0.20;;
52386;SDS011;38317;53.084;6.960;2023-01-09T01:57:49;0.80;;;0.40;;
52386;SDS011;38317;53.084;6.960;2023-01-09T02:00:20;0.57;;;0.28;;
52386;SDS011;38317;53.084;6.960;2023-01-09T02:02:49;1.20;;;0.32;;
52386;SDS011;38317;53.084;6.960;2023-01-09T02:05:15;1.50;;;0.45;;
52386;SDS011;38317;53.084;6.960;2023-01-09T02:07:41;1.83;;;0.40;;
52386;SDS011;38317;53.084;6.960;2023-01-09T02:10:07;0.80;;;0.40;;
52386;SDS011;38317;53.084;6.960;2023-01-09T02:12:33;1.17;;;0.40;;
52386;SDS011;38317;53.084;6.960;2023-01-09T02:15:00;1.48;;;0.60;;
52386;SDS011;38317;53.084;6.960;2023-01-09T02:31:36;0.85;;;0.30;;
52386;SDS011;38317;53.084;6.960;2023-01-09T02:37:07;2.80;;;0.45;;
52386;SDS011;38317;53.084;6.960;2023-01-09T02:42:35;1.17;;;0.50;;
52386;SDS011;38317;53.084;6.960;2023-01-09T02:45:03;2.47;;;0.65;;
52386;SDS011;38317;53.084;6.960;2023-01-09T02:50:01;2.05;;;0.68;;
52386;SDS011;38317;53.084;6.960;2023-01-09T02:55:07;5.93;;;1.42;;
52386;SDS011;38317;53.084;6.960;2023-01-09T03:00:44;3.03;;;1.00;;
52386;SDS011;38317;53.084;6.960;2023-01-09T03:06:09;1.73;;;0.73;;
52386;SDS011;38317;53.084;6.960;2023-01-09T03:08:39;3.20;;;0.80;;
52386;SDS011;38317;53.084;6.960;2023-01-09T03:11:18;2.55;;;0.82;;
52386;SDS011;38317;53.084;6.960;2023-01-09T03:13:48;2.25;;;0.85;;
52386;SDS011;38317;53.084;6.960;2023-01-09T03:16:22;3.17;;;0.73;;
52386;SDS011;38317;53.084;6.960;2023-01-09T03:18:51;1.60;;;0.80;;
52386;SDS011;38317;53.084;6.960;2023-01-09T03:21:19;3.22;;;1.10;;
52386;SDS011;38317;53.084;6.960;2023-01-09T03:23:47;3.92;;;1.10;;
52386;SDS011;38317;53.084;6.960;2023-01-09T03:26:17;2.67;;;1.00;;
52386;SDS011;38317;53.084;6.960;2023-01-09T03:28:43;5.28;;;1.00;;
52386;SDS011;38317;53.084;6.960;2023-01-09T03:31:10;2.55;;;0.95;;
52386;SDS011;38317;53.084;6.960;2023-01-09T03:33:36;4.20;;;1.02;;
52386;SDS011;38317;53.084;6.960;2023-01-09T03:36:02;3.53;;;1.10;;
52386;SDS011;38317;53.084;6.960;2023-01-09T03:38:28;3.30;;;1.00;;
52386;SDS011;38317;53.084;6.960;2023-01-09T03:40:54;4.35;;;1.23;;
52386;SDS011;38317;53.084;6.960;2023-01-09T03:43:20;2.58;;;1.20;;
52386;SDS011;38317;53.084;6.960;2023-01-09T03:45:46;4.18;;;1.67;;
52386;SDS011;38317;53.084;6.960;2023-01-09T03:48:11;5.55;;;0.85;;
52386;SDS011;38317;53.084;6.960;2023-01-09T03:50:37;2.60;;;1.20;;
52386;SDS011;38317;53.084;6.960;2023-01-09T03:53:03;4.88;;;1.17;;
52386;SDS011;38317;53.084;6.960;2023-01-09T03:55:28;3.75;;;1.30;;
52386;SDS011;38317;53.084;6.960;2023-01-09T03:57:54;4.15;;;1.40;;
52386;SDS011;38317;53.084;6.960;2023-01-09T04:00:20;2.50;;;1.10;;
52386;SDS011;38317;53.084;6.960;2023-01-09T04:02:46;3.42;;;1.23;;
52386;SDS011;38317;53.084;6.960;2023-01-09T04:05:12;4.57;;;1.38;;
52386;SDS011;38317;53.084;6.960;2023-01-09T04:07:38;3.00;;;1.25;;
52386;SDS011;38317;53.084;6.960;2023-01-09T04:10:04;3.72;;;1.27;;
52386;SDS011;38317;53.084;6.960;2023-01-09T04:12:30;2.83;;;1.10;;
52386;SDS011;38317;53.084;6.960;2023-01-09T04:14:56;1.90;;;0.93;;
52386;SDS011;38317;53.084;6.960;2023-01-09T04:17:21;2.55;;;1.00;;
52386;SDS011;38317;53.084;6.960;2023-01-09T04:19:47;3.65;;;1.05;;
52386;SDS011;38317;53.084;6.960;2023-01-09T04:22:13;2.78;;;1.30;;
52386;SDS011;38317;53.084;6.960;2023-01-09T04:24:39;4.00;;;1.25;;
52386;SDS011;38317;53.084;6.960;2023-01-09T04:27:04;3.53;;;1.27;;
52386;SDS011;38317;53.084;6.960;2023-01-09T04:29:30;2.45;;;1.10;;
52386;SDS011;38317;53.084;6.960;2023-01-09T04:31:56;3.22;;;1.10;;
52386;SDS011;38317;53.084;6.960;2023-01-09T04:34:21;3.40;;;1.17;;
52386;SDS011;38317;53.084;6.960;2023-01-09T04:36:50;7.45;;;1.45;;
52386;SDS011;38317;53.084;6.960;2023-01-09T04:39:18;5.18;;;1.42;;
52386;SDS011;38317;53.084;6.960;2023-01-09T04:41:43;5.32;;;1.73;;
52386;SDS011;38317;53.084;6.960;2023-01-09T04:44:22;3.75;;;1.25;;
52386;SDS011;38317;53.084;6.960;2023-01-09T04:46:51;3.83;;;1.40;;
52386;SDS011;38317;53.084;6.960;2023-01-09T04:49:18;4.30;;;1.83;;
52386;SDS011;38317;53.084;6.960;2023-01-09T04:51:45;4.43;;;1.80;;
52386;SDS011;38317;53.084;6.960;2023-01-09T04:54:10;4.13;;;1.65;;
52386;SDS011;38317;53.084;6.960;2023-01-09T04:56:36;3.70;;;1.80;;
52386;SDS011;38317;53.084;6.960;2023-01-09T04:59:02;5.00;;;2.72;;
52386;SDS011;38317;53.084;6.960;2023-01-09T05:01:29;5.93;;;2.85;;
52386;SDS011;38317;53.084;6.960;2023-01-09T05:03:55;6.75;;;2.90;;
52386;SDS011;38317;53.084;6.960;2023-01-09T05:06:21;7.05;;;3.05;;
52386;SDS011;38317;53.084;6.960;2023-01-09T05:08:47;10.95;;;3.38;;
52386;SDS011;38317;53.084;6.960;2023-01-09T05:11:13;5.35;;;2.55;;
52386;SDS011;38317;53.084;6.960;2023-01-09T05:13:39;6.15;;;2.83;;
52386;SDS011;38317;53.084;6.960;2023-01-09T05:16:05;7.05;;;3.30;;
52386;SDS011;38317;53.084;6.960;2023-01-09T05:18:31;10.50;;;3.50;;
52386;SDS011;38317;53.084;6.960;2023-01-09T05:20:56;6.35;;;3.00;;
52386;SDS011;38317;53.084;6.960;2023-01-09T05:23:22;7.43;;;3.13;;
52386;SDS011;38317;53.084;6.960;2023-01-09T05:25:48;9.07;;;3.53;;
52386;SDS011;38317;53.084;6.960;2023-01-09T05:28:14;7.82;;;3.83;;
52386;SDS011;38317;53.084;6.960;2023-01-09T05:30:39;6.40;;;3.33;;
52386;SDS011;38317;53.084;6.960;2023-01-09T05:33:05;9.30;;;4.47;;
52386;SDS011;38317;53.084;6.960;2023-01-09T05:35:31;7.13;;;3.95;;
52386;SDS011;38317;53.084;6.960;2023-01-09T05:37:57;9.07;;;4.50;;
52386;SDS011;38317;53.084;6.960;2023-01-09T05:40:22;9.05;;;4.10;;
52386;SDS011;38317;53.084;6.960;2023-01-09T05:42:48;8.23;;;3.70;;
52386;SDS011;38317;53.084;6.960;2023-01-09T05:45:14;9.25;;;4.57;;
52386;SDS011;38317;53.084;6.960;2023-01-09T05:47:40;10.95;;;5.18;;
52386;SDS011;38317;53.084;6.960;2023-01-09T05:50:08;9.77;;;5.03;;
52386;SDS011;38317;53.084;6.960;2023-01-09T05:52:34;11.18;;;5.70;;
52386;SDS011;38317;53.084;6.960;2023-01-09T05:55:00;12.13;;;5.15;;
52386;SDS011;38317;53.084;6.960;2023-01-09T05:57:26;10.00;;;5.57;;
52386;SDS011;38317;53.084;6.960;2023-01-09T05:59:53;14.13;;;6.60;;
52386;SDS011;38317;53.084;6.960;2023-01-09T06:02:18;12.65;;;5.72;;
52386;SDS011;38317;53.084;6.960;2023-01-09T06:04:44;11.38;;;6.00;;
52386;SDS011;38317;53.084;6.960;2023-01-09T06:07:10;11.32;;;5.50;;
52386;SDS011;38317;53.084;6.960;2023-01-09T06:09:36;10.65;;;5.63;;
52386;SDS011;38317;53.084;6.960;2023-01-09T06:12:02;12.10;;;5.85;;
52386;SDS011;38317;53.084;6.960;2023-01-09T06:14:27;13.52;;;7.25;;
52386;SDS011;38317;53.084;6.960;2023-01-09T06:16:53;12.20;;;5.88;;
52386;SDS011;38317;53.084;6.960;2023-01-09T06:19:19;12.82;;;7.65;;
52386;SDS011;38317;53.084;6.960;2023-01-09T06:21:45;15.45;;;7.03;;
52386;SDS011;38317;53.084;6.960;2023-01-09T06:24:11;12.90;;;5.90;;
52386;SDS011;38317;53.084;6.960;2023-01-09T06:26:36;12.93;;;6.85;;
52386;SDS011;38317;53.084;6.960;2023-01-09T06:29:02;13.27;;;6.30;;
52386;SDS011;38317;53.084;6.960;2023-01-09T06:31:28;11.13;;;5.63;;
52386;SDS011;38317;53.084;6.960;2023-01-09T06:33:54;11.10;;;6.55;;
52386;SDS011;38317;53.084;6.960;2023-01-09T06:36:20;10.57;;;6.65;;
52386;SDS011;38317;53.084;6.960;2023-01-09T06:38:46;15.30;;;5.72;;
52386;SDS011;38317;53.084;6.960;2023-01-09T06:41:12;9.50;;;5.18;;
52386;SDS011;38317;53.084;6.960;2023-01-09T06:43:37;12.20;;;6.18;;
52386;SDS011;38317;53.084;6.960;2023-01-09T06:46:03;11.93;;;5.15;;
52386;SDS011;38317;53.084;6.960;2023-01-09T06:48:30;12.38;;;5.95;;
52386;SDS011;38317;53.084;6.960;2023-01-09T06:50:56;10.45;;;5.70;;
52386;SDS011;38317;53.084;6.960;2023-01-09T06:53:22;11.18;;;5.80;;
52386;SDS011;38317;53.084;6.960;2023-01-09T06:55:48;18.15;;;5.53;;
52386;SDS011;38317;53.084;6.960;2023-01-09T06:58:14;9.40;;;5.32;;
52386;SDS011;38317;53.084;6.960;2023-01-09T07:00:40;10.20;;;4.47;;
52386;SDS011;38317;53.084;6.960;2023-01-09T07:03:06;10.13;;;5.55;;
52386;SDS011;38317;53.084;6.960;2023-01-09T07:05:33;10.40;;;5.38;;
52386;SDS011;38317;53.084;6.960;2023-01-09T07:08:06;9.48;;;4.97;;
52386;SDS011;38317;53.084;6.960;2023-01-09T07:10:32;13.52;;;5.07;;
52386;SDS011;38317;53.084;6.960;2023-01-09T07:12:58;10.35;;;5.32;;
52386;SDS011;38317;53.084;6.960;2023-01-09T07:15:23;9.55;;;4.78;;
52386;SDS011;38317;53.084;6.960;2023-01-09T07:17:50;11.23;;;5.55;;
52386;SDS011;38317;53.084;6.960;2023-01-09T07:20:16;10.68;;;4.80;;
52386;SDS011;38317;53.084;6.960;2023-01-09T07:22:42;7.45;;;3.75;;
52386;SDS011;38317;53.084;6.960;2023-01-09T07:25:08;8.98;;;4.22;;
52386;SDS011;38317;53.084;6.960;2023-01-09T07:27:34;9.45;;;3.97;;
52386;SDS011;38317;53.084;6.960;2023-01-09T07:30:00;12.73;;;3.80;;
52386;SDS011;38317;53.084;6.960;2023-01-09T07:32:26;9.85;;;3.85;;
52386;SDS011;38317;53.084;6.960;2023-01-09T07:34:52;8.00;;;4.00;;
52386;SDS011;38317;53.084;6.960;2023-01-09T07:37:18;6.80;;;3.58;;
52386;SDS011;38317;53.084;6.960;2023-01-09T07:39:43;6.90;;;3.70;;
52386;SDS011;38317;53.084;6.960;2023-01-09T07:42:09;5.30;;;2.78;;
52386;SDS011;38317;53.084;6.960;2023-01-09T07:44:35;8.27;;;3.13;;
52386;SDS011;38317;53.084;6.960;2023-01-09T07:47:01;6.70;;;3.05;;
52386;SDS011;38317;53.084;6.960;2023-01-09T07:49:27;9.90;;;3.53;;
52386;SDS011;38317;53.084;6.960;2023-01-09T07:51:53;8.05;;;3.55;;
52386;SDS011;38317;53.084;6.960;2023-01-09T07:54:19;6.22;;;3.60;;
52386;SDS011;38317;53.084;6.960;2023-01-09T07:56:45;7.68;;;4.10;;
52386;SDS011;38317;53.084;6.960;2023-01-09T07:59:11;9.38;;;3.65;;
52386;SDS011;38317;53.084;6.960;2023-01-09T08:01:37;6.53;;;3.17;;
52386;SDS011;38317;53.084;6.960;2023-01-09T08:04:03;7.35;;;2.97;;
52386;SDS011;38317;53.084;6.960;2023-01-09T08:06:29;10.27;;;3.13;;
52386;SDS011;38317;53.084;6.960;2023-01-09T08:08:55;5.72;;;2.90;;
52386;SDS011;38317;53.084;6.960;2023-01-09T08:11:22;8.18;;;3.17;;
52386;SDS011;38317;53.084;6.960;2023-01-09T08:13:48;5.90;;;3.28;;
52386;SDS011;38317;53.084;6.960;2023-01-09T08:16:14;7.40;;;2.65;;
52386;SDS011;38317;53.084;6.960;2023-01-09T08:18:40;5.15;;;2.35;;
52386;SDS011;38317;53.084;6.960;2023-01-09T08:21:06;6.35;;;2.20;;
52386;SDS011;38317;53.084;6.960;2023-01-09T08:23:32;4.68;;;1.90;;
52386;SDS011;38317;53.084;6.960;2023-01-09T08:25:58;5.20;;;1.95;;
52386;SDS011;38317;53.084;6.960;2023-01-09T08:28:24;5.95;;;1.98;;
52386;SDS011;38317;53.084;6.960;2023-01-09T08:30:49;5.03;;;1.95;;
52386;SDS011;38317;53.084;6.960;2023-01-09T08:33:15;4.55;;;1.65;;
52386;SDS011;38317;53.084;6.960;2023-01-09T08:35:42;6.47;;;2.28;;
52386;SDS011;38317;53.084;6.960;2023-01-09T08:38:08;5.95;;;1.77;;
52386;SDS011;38317;53.084;6.960;2023-01-09T08:40:34;9.30;;;2.25;;
52386;SDS011;38317;53.084;6.960;2023-01-09T08:43:00;4.20;;;2.20;;
52386;SDS011;38317;53.084;6.960;2023-01-09T08:45:45;6.45;;;1.98;;
52386;SDS011;38317;53.084;6.960;2023-01-09T08:48:30;6.32;;;1.77;;
52386;SDS011;38317;53.084;6.960;2023-01-09T08:50:55;4.75;;;1.92;;
52386;SDS011;38317;53.084;6.960;2023-01-09T08:53:21;5.63;;;1.65;;
52386;SDS011;38317;53.084;6.960;2023-01-09T08:55:47;5.22;;;1.92;;
52386;SDS011;38317;53.084;6.960;2023-01-09T08:58:13;5.80;;;1.98;;
52386;SDS011;38317;53.084;6.960;2023-01-09T09:00:39;4.68;;;1.67;;
52386;SDS011;38317;53.084;6.960;2023-01-09T09:03:05;3.75;;;1.48;;
52386;SDS011;38317;53.084;6.960;2023-01-09T09:05:31;5.13;;;1.77;;
52386;SDS011;38317;53.084;6.960;2023-01-09T09:07:57;4.53;;;1.95;;
52386;SDS011;38317;53.084;6.960;2023-01-09T09:10:27;6.03;;;1.55;;
52386;SDS011;38317;53.084;6.960;2023-01-09T09:12:54;7.15;;;2.25;;
52386;SDS011;38317;53.084;6.960;2023-01-09T09:15:21;4.38;;;1.35;;
52386;SDS011;38317;53.084;6.960;2023-01-09T09:17:52;5.30;;;1.42;;
52386;SDS011;38317;53.084;6.960;2023-01-09T09:20:20;7.47;;;2.10;;
52386;SDS011;38317;53.084;6.960;2023-01-09T09:22:47;9.13;;;1.60;;
52386;SDS011;38317;53.084;6.960;2023-01-09T09:25:13;5.95;;;1.90;;
52386;SDS011;38317;53.084;6.960;2023-01-09T09:27:40;5.15;;;1.98;;
52386;SDS011;38317;53.084;6.960;2023-01-09T09:30:07;7.05;;;1.75;;
52386;SDS011;38317;53.084;6.960;2023-01-09T09:32:34;6.72;;;1.80;;
52386;SDS011;38317;53.084;6.960;2023-01-09T09:34:59;5.35;;;1.55;;
52386;SDS011;38317;53.084;6.960;2023-01-09T09:37:26;8.32;;;1.30;;
52386;SDS011;38317;53.084;6.960;2023-01-09T09:39:52;4.28;;;1.70;;
52386;SDS011;38317;53.084;6.960;2023-01-09T09:48:44;4.65;;;1.50;;
52386;SDS011;38317;53.084;6.960;2023-01-09T09:51:22;3.70;;;1.33;;
52386;SDS011;38317;53.084;6.960;2023-01-09T09:54:03;4.60;;;1.40;;
52386;SDS011;38317;53.084;6.960;2023-01-09T09:56:34;5.55;;;1.65;;
52386;SDS011;38317;53.084;6.960;2023-01-09T09:59:21;3.90;;;1.42;;
52386;SDS011;38317;53.084;6.960;2023-01-09T10:01:54;4.85;;;1.50;;
52386;SDS011;38317;53.084;6.960;2023-01-09T10:04:24;5.30;;;1.55;;
52386;SDS011;38317;53.084;6.960;2023-01-09T10:06:56;7.50;;;1.73;;
52386;SDS011;38317;53.084;6.960;2023-01-09T10:12:28;3.78;;;1.40;;
52386;SDS011;38317;53.084;6.960;2023-01-09T10:14:57;6.63;;;1.70;;
52386;SDS011;38317;53.084;6.960;2023-01-09T10:17:37;5.47;;;1.67;;
52386;SDS011;38317;53.084;6.960;2023-01-09T10:20:34;5.13;;;1.65;;
52386;SDS011;38317;53.084;6.960;2023-01-09T10:31:26;5.03;;;1.50;;
52386;SDS011;38317;53.084;6.960;2023-01-09T10:36:32;6.28;;;1.70;;
52386;SDS011;38317;53.084;6.960;2023-01-09T10:42:15;4.88;;;1.60;;
52386;SDS011;38317;53.084;6.960;2023-01-09T10:44:48;3.35;;;1.92;;
52386;SDS011;38317;53.084;6.960;2023-01-09T10:47:29;5.00;;;1.67;;
52386;SDS011;38317;53.084;6.960;2023-01-09T10:49:58;6.60;;;1.70;;
52386;SDS011;38317;53.084;6.960;2023-01-09T10:52:45;6.70;;;1.60;;
52386;SDS011;38317;53.084;6.960;2023-01-09T10:55:26;4.43;;;1.58;;
52386;SDS011;38317;53.084;6.960;2023-01-09T10:58:03;5.35;;;1.40;;
52386;SDS011;38317;53.084;6.960;2023-01-09T11:00:44;4.72;;;1.58;;
52386;SDS011;38317;53.084;6.960;2023-01-09T11:03:21;7.95;;;1.73;;
52386;SDS011;38317;53.084;6.960;2023-01-09T11:05:50;4.75;;;1.75;;
52386;SDS011;38317;53.084;6.960;2023-01-09T11:08:20;4.93;;;1.45;;
52386;SDS011;38317;53.084;6.960;2023-01-09T11:10:51;4.63;;;1.42;;
52386;SDS011;38317;53.084;6.960;2023-01-09T11:13:25;3.45;;;1.48;;
52386;SDS011;38317;53.084;6.960;2023-01-09T11:18:36;3.00;;;1.40;;
52386;SDS011;38317;53.084;6.960;2023-01-09T11:21:18;3.75;;;1.50;;
52386;SDS011;38317;53.084;6.960;2023-01-09T11:23:54;5.65;;;1.40;;
52386;SDS011;38317;53.084;6.960;2023-01-09T11:26:24;4.82;;;2.25;;
52386;SDS011;38317;53.084;6.960;2023-01-09T11:29:05;4.95;;;1.30;;
52386;SDS011;38317;53.084;6.960;2023-01-09T11:31:34;3.92;;;1.00;;
52386;SDS011;38317;53.084;6.960;2023-01-09T11:34:00;4.50;;;1.33;;
52386;SDS011;38317;53.084;6.960;2023-01-09T11:36:26;3.20;;;1.25;;
52386;SDS011;38317;53.084;6.960;2023-01-09T11:38:53;4.15;;;1.20;;
52386;SDS011;38317;53.084;6.960;2023-01-09T11:41:30;6.72;;;2.72;;
52386;SDS011;38317;53.084;6.960;2023-01-09T11:43:59;3.28;;;1.50;;
52386;SDS011;38317;53.084;6.960;2023-01-09T11:46:31;4.57;;;1.45;;
52386;SDS011;38317;53.084;6.960;2023-01-09T11:49:00;4.72;;;1.35;;
52386;SDS011;38317;53.084;6.960;2023-01-09T11:51:28;4.60;;;1.20;;
52386;SDS011;38317;53.084;6.960;2023-01-09T11:54:06;2.80;;;1.33;;
52386;SDS011;38317;53.084;6.960;2023-01-09T11:56:52;4.88;;;1.75;;
52386;SDS011;38317;53.084;6.960;2023-01-09T11:59:20;2.40;;;1.27;;
52386;SDS011;38317;53.084;6.960;2023-01-09T12:12:39;4.07;;;1.10;;
52386;SDS011;38317;53.084;6.960;2023-01-09T12:15:15;1.95;;;1.05;;
52386;SDS011;38317;53.084;6.960;2023-01-09T12:29:46;2.67;;;1.35;;
52386;SDS011;38317;53.084;6.960;2023-01-09T12:34:57;4.60;;;1.60;;
52386;SDS011;38317;53.084;6.960;2023-01-09T12:37:32;3.92;;;1.70;;
52386;SDS011;38317;53.084;6.960;2023-01-09T12:40:17;4.22;;;1.75;;
52386;SDS011;38317;53.084;6.960;2023-01-09T12:43:04;5.32;;;1.88;;
52386;SDS011;38317;53.084;6.960;2023-01-09T12:45:56;14.25;;;3.03;;
52386;SDS011;38317;53.084;6.960;2023-01-09T12:56:39;7.20;;;2.30;;
52386;SDS011;38317;53.084;6.960;2023-01-09T13:02:18;4.25;;;2.03;;
52386;SDS011;38317;53.084;6.960;2023-01-09T13:07:46;5.13;;;2.25;;
52386;SDS011;38317;53.084;6.960;2023-01-09T13:10:21;4.97;;;2.65;;
52386;SDS011;38317;53.084;6.960;2023-01-09T13:12:54;5.82;;;2.55;;
52386;SDS011;38317;53.084;6.960;2023-01-09T13:15:36;5.53;;;2.63;;
52386;SDS011;38317;53.084;6.960;2023-01-09T13:19:06;4.28;;;2.50;;
52386;SDS011;38317;53.084;6.960;2023-01-09T13:21:12;6.68;;;2.67;;
52386;SDS011;38317;53.084;6.960;2023-01-09T13:23:41;6.78;;;2.88;;
52386;SDS011;38317;53.084;6.960;2023-01-09T13:26:41;5.93;;;2.50;;
52386;SDS011;38317;53.084;6.960;2023-01-09T13:29:16;7.53;;;2.70;;
52386;SDS011;38317;53.084;6.960;2023-01-09T13:34:40;4.40;;;2.53;;
52386;SDS011;38317;53.084;6.960;2023-01-09T13:37:52;4.95;;;2.88;;
52386;SDS011;38317;53.084;6.960;2023-01-09T13:40:02;5.22;;;2.80;;
52386;SDS011;38317;53.084;6.960;2023-01-09T13:42:55;7.80;;;3.63;;
52386;SDS011;38317;53.084;6.960;2023-01-09T13:45:23;7.25;;;3.25;;
52386;SDS011;38317;53.084;6.960;2023-01-09T13:50:38;7.00;;;3.33;;
52386;SDS011;38317;53.084;6.960;2023-01-09T14:00:52;6.88;;;3.33;;
52386;SDS011;38317;53.084;6.960;2023-01-09T14:08:19;7.13;;;3.65;;
52386;SDS011;38317;53.084;6.960;2023-01-09T14:10:48;5.80;;;3.25;;
52386;SDS011;38317;53.084;6.960;2023-01-09T14:13:22;5.40;;;2.70;;
52386;SDS011;38317;53.084;6.960;2023-01-09T14:19:01;8.85;;;3.40;;
52386;SDS011;38317;53.084;6.960;2023-01-09T14:21:47;6.93;;;3.33;;
52386;SDS011;38317;53.084;6.960;2023-01-09T14:24:20;8.80;;;3.58;;
52386;SDS011;38317;53.084;6.960;2023-01-09T14:26:56;8.20;;;4.43;;
52386;SDS011;38317;53.084;6.960;2023-01-09T14:35:08;7.72;;;4.03;;
52386;SDS011;38317;53.084;6.960;2023-01-09T14:37:40;8.85;;;3.90;;
52386;SDS011;38317;53.084;6.960;2023-01-09T14:40:14;6.75;;;3.70;;
52386;SDS011;38317;53.084;6.960;2023-01-09T14:42:48;6.43;;;3.10;;
52386;SDS011;38317;53.084;6.960;2023-01-09T14:45:17;7.75;;;4.20;;
52386;SDS011;38317;53.084;6.960;2023-01-09T14:47:53;7.85;;;3.88;;
52386;SDS011;38317;53.084;6.960;2023-01-09T14:50:44;8.20;;;3.95;;
52386;SDS011;38317;53.084;6.960;2023-01-09T14:53:30;8.52;;;3.50;;
52386;SDS011;38317;53.084;6.960;2023-01-09T14:56:01;6.80;;;3.40;;
52386;SDS011;38317;53.084;6.960;2023-01-09T14:58:34;10.38;;;3.95;;
52386;SDS011;38317;53.084;6.960;2023-01-09T15:03:43;6.95;;;3.50;;
52386;SDS011;38317;53.084;6.960;2023-01-09T15:06:17;7.15;;;3.33;;
52386;SDS011;38317;53.084;6.960;2023-01-09T15:08:53;8.90;;;4.20;;
52386;SDS011;38317;53.084;6.960;2023-01-09T15:11:24;11.48;;;3.70;;
52386;SDS011;38317;53.084;6.960;2023-01-09T15:13:52;9.20;;;3.85;;
52386;SDS011;38317;53.084;6.960;2023-01-09T15:16:21;9.65;;;3.70;;
52386;SDS011;38317;53.084;6.960;2023-01-09T15:18:49;6.60;;;3.33;;
52386;SDS011;38317;53.084;6.960;2023-01-09T15:21:24;8.52;;;3.38;;
52386;SDS011;38317;53.084;6.960;2023-01-09T15:23:54;6.15;;;3.35;;
52386;SDS011;38317;53.084;6.960;2023-01-09T15:26:55;7.15;;;2.90;;
52386;SDS011;38317;53.084;6.960;2023-01-09T15:29:24;4.63;;;2.60;;
52386;SDS011;38317;53.084;6.960;2023-01-09T15:32:15;6.07;;;2.90;;
52386;SDS011;38317;53.084;6.960;2023-01-09T15:34:39;6.47;;;3.33;;
52386;SDS011;38317;53.084;6.960;2023-01-09T15:37:32;5.07;;;2.60;;
52386;SDS011;38317;53.084;6.960;2023-01-09T15:40:01;8.85;;;3.25;;
52386;SDS011;38317;53.084;6.960;2023-01-09T15:42:30;9.40;;;3.05;;
52386;SDS011;38317;53.084;6.960;2023-01-09T15:47:45;8.63;;;3.63;;
52386;SDS011;38317;53.084;6.960;2023-01-09T15:50:12;7.30;;;3.25;;
52386;SDS011;38317;53.084;6.960;2023-01-09T15:52:40;8.10;;;3.58;;
52386;SDS011;38317;53.084;6.960;2023-01-09T15:55:22;7.18;;;3.50;;
52386;SDS011;38317;53.084;6.960;2023-01-09T15:58:01;6.55;;;3.15;;
52386;SDS011;38317;53.084;6.960;2023-01-09T16:00:35;9.02;;;3.55;;
52386;SDS011;38317;53.084;6.960;2023-01-09T16:03:09;5.90;;;2.95;;
52386;SDS011;38317;53.084;6.960;2023-01-09T16:05:51;7.70;;;2.72;;
52386;SDS011;38317;53.084;6.960;2023-01-09T16:08:18;8.43;;;2.83;;
52386;SDS011;38317;53.084;6.960;2023-01-09T16:10:51;6.97;;;2.40;;
52386;SDS011;38317;53.084;6.960;2023-01-09T16:13:19;6.53;;;2.40;;
52386;SDS011;38317;53.084;6.960;2023-01-09T16:15:48;5.78;;;1.90;;
52386;SDS011;38317;53.084;6.960;2023-01-09T16:18:20;8.02;;;2.90;;
52386;SDS011;38317;53.084;6.960;2023-01-09T16:20:59;7.15;;;1.92;;
52386;SDS011;38317;53.084;6.960;2023-01-09T16:23:31;5.20;;;1.83;;
52386;SDS011;38317;53.084;6.960;2023-01-09T16:26:32;8.98;;;1.77;;
52386;SDS011;38317;53.084;6.960;2023-01-09T16:28:52;7.78;;;1.85;;
52386;SDS011;38317;53.084;6.960;2023-01-09T16:31:27;5.97;;;1.40;;
52386;SDS011;38317;53.084;6.960;2023-01-09T16:34:04;7.82;;;1.50;;
52386;SDS011;38317;53.084;6.960;2023-01-09T16:36:34;3.97;;;1.30;;
52386;SDS011;38317;53.084;6.960;2023-01-09T16:39:00;5.88;;;1.48;;
52386;SDS011;38317;53.084;6.960;2023-01-09T16:41:27;3.03;;;1.00;;
52386;SDS011;38317;53.084;6.960;2023-01-09T16:44:12;5.10;;;0.85;;
52386;SDS011;38317;53.084;6.960;2023-01-09T16:46:42;4.32;;;0.95;;
52386;SDS011;38317;53.084;6.960;2023-01-09T16:51:42;4.45;;;0.90;;
52386;SDS011;38317;53.084;6.960;2023-01-09T16:54:08;3.88;;;0.90;;
52386;SDS011;38317;53.084;6.960;2023-01-09T16:56:34;3.55;;;0.80;;
52386;SDS011;38317;53.084;6.960;2023-01-09T16:59:01;4.82;;;0.80;;
52386;SDS011;38317;53.084;6.960;2023-01-09T17:01:27;5.53;;;1.15;;
52386;SDS011;38317;53.084;6.960;2023-01-09T17:03:52;5.45;;;1.17;;
52386;SDS011;38317;53.084;6.960;2023-01-09T17:06:20;6.72;;;2.03;;
52386;SDS011;38317;53.084;6.960;2023-01-09T17:08:53;3.03;;;0.88;;
52386;SDS011;38317;53.084;6.960;2023-01-09T17:11:23;3.17;;;1.02;;
52386;SDS011;38317;53.084;6.960;2023-01-09T17:14:04;5.20;;;1.00;;
52386;SDS011;38317;53.084;6.960;2023-01-09T17:16:32;6.20;;;1.10;;